Time;durP1;ratioP1;P1;durP2;ratioP2;P2;SDS_P1;SDS_P2;PMS_P1;PMS_P2;Temp;Humidity;BMP_temperature;BMP_pressure;BME280_temperature;BME280_humidity;BME280_pressure;Samples;Min_cycle;Max_cycle;Signal;HPM_P1;HPM_P2
2023/01/23 00:01:09;;;;;;;18.60;10.43;;;-1.80;99.90;;;;;;5017594;28;20503;-59
2023/01/23 00:03:35;;;;;;;18.70;10.80;;;-1.70;99.90;;;;;;4992287;28;20473;-60
2023/01/23 00:06:06;;;;;;;15.77;9.27;;;-1.70;99.90;;;;;;5012170;28;20420;-59
2023/01/23 00:08:33;;;;;;;25.97;12.70;;;-1.70;99.90;;;;;;5011969;28;20187;-60
2023/01/23 00:10:58;;;;;;;24.63;11.77;;;-1.70;99.90;;;;;;5009732;28;20502;-60
2023/01/23 00:13:24;;;;;;;22.27;11.10;;;-1.70;99.90;;;;;;5009680;28;20853;-61
2023/01/23 00:15:50;;;;;;;22.40;12.73;;;-1.70;99.90;;;;;;5013931;28;20188;-59
2023/01/23 00:18:16;;;;;;;23.17;12.07;;;-1.70;99.90;;;;;;5010140;28;20514;-59
2023/01/23 00:20:42;;;;;;;24.20;11.83;;;-1.70;99.90;;;;;;5010522;28;20174;-59
2023/01/23 00:23:08;;;;;;;22.83;12.67;;;-1.60;99.90;;;;;;5009615;28;20432;-60
2023/01/23 00:25:34;;;;;;;20.70;12.03;;;-1.60;99.90;;;;;;5015615;28;21079;-59
2023/01/23 00:28:00;;;;;;;16.93;9.40;;;-1.60;99.90;;;;;;5005234;28;20585;-59
2023/01/23 00:30:26;;;;;;;22.73;11.10;;;-1.60;99.90;;;;;;5012512;28;21139;-59
2023/01/23 00:32:51;;;;;;;22.07;10.20;;;-1.60;99.90;;;;;;5014492;28;20464;-59
2023/01/23 00:35:17;;;;;;;21.60;10.20;;;-1.60;99.90;;;;;;5010674;28;20244;-60
2023/01/23 00:37:42;;;;;;;20.20;10.00;;;-1.60;99.90;;;;;;5007409;28;20183;-59
2023/01/23 00:40:09;;;;;;;20.73;10.80;;;-1.60;99.90;;;;;;5011669;28;20252;-60
2023/01/23 00:42:34;;;;;;;17.00;9.50;;;-1.60;99.90;;;;;;5010491;28;20902;-59
2023/01/23 00:45:00;;;;;;;23.10;10.27;;;-1.60;99.90;;;;;;5017993;28;20459;-59
2023/01/23 00:47:26;;;;;;;21.20;10.13;;;-1.60;99.90;;;;;;4995256;28;20185;-59
2023/01/23 00:49:56;;;;;;;17.47;10.17;;;-1.60;99.90;;;;;;5011582;28;20810;-60
2023/01/23 00:52:22;;;;;;;21.00;9.60;;;-1.60;99.90;;;;;;5008706;28;20210;-60
2023/01/23 00:54:47;;;;;;;18.97;10.10;;;-1.60;99.90;;;;;;5005066;28;20477;-59
2023/01/23 00:57:13;;;;;;;20.80;10.20;;;-1.60;99.90;;;;;;5006526;28;20201;-60
2023/01/23 00:59:38;;;;;;;16.90;10.17;;;-1.60;99.90;;;;;;5013938;28;20186;-60
2023/01/23 01:02:05;;;;;;;18.13;10.03;;;-1.60;99.90;;;;;;5008360;28;20179;-60
2023/01/23 01:04:30;;;;;;;17.60;9.90;;;-1.60;99.90;;;;;;5005594;28;20250;-59
2023/01/23 01:06:56;;;;;;;18.47;10.00;;;-1.50;99.90;;;;;;5001457;28;20457;-59
2023/01/23 01:09:21;;;;;;;20.10;9.67;;;-1.50;99.90;;;;;;5014031;28;20188;-59
2023/01/23 01:11:47;;;;;;;16.17;9.13;;;-1.50;99.90;;;;;;5008833;28;20632;-59
2023/01/23 01:14:12;;;;;;;19.17;9.50;;;-1.50;99.90;;;;;;4984533;28;20218;-59
2023/01/23 01:16:43;;;;;;;19.40;10.60;;;-1.50;99.90;;;;;;5006761;28;20264;-60
2023/01/23 01:19:09;;;;;;;16.50;9.40;;;-1.50;99.90;;;;;;5010508;28;20181;-60
2023/01/23 01:21:35;;;;;;;18.73;10.30;;;-1.50;99.90;;;;;;5003930;28;20429;-59
2023/01/23 01:24:00;;;;;;;17.40;10.13;;;-1.50;99.90;;;;;;4988371;28;20450;-59
2023/01/23 01:26:26;;;;;;;17.50;9.77;;;-1.50;99.90;;;;;;5004090;28;20170;-60
2023/01/23 01:28:52;;;;;;;15.60;8.93;;;-1.40;99.90;;;;;;5008428;28;20176;-59
2023/01/23 01:31:17;;;;;;;20.67;10.83;;;-1.40;99.90;;;;;;5003995;28;20718;-59
2023/01/23 01:33:43;;;;;;;18.13;9.50;;;-1.40;99.90;;;;;;5003146;28;20289;-59
2023/01/23 01:36:14;;;;;;;19.40;9.10;;;-1.40;99.90;;;;;;5006998;28;20200;-59
2023/01/23 01:38:40;;;;;;;18.10;9.47;;;-1.40;99.90;;;;;;5008200;28;20442;-59
2023/01/23 01:41:07;;;;;;;18.90;9.83;;;-1.40;99.90;;;;;;4992515;28;21026;-60
2023/01/23 01:43:34;;;;;;;16.37;9.17;;;-1.30;99.90;;;;;;5005702;28;20452;-59
2023/01/23 01:46:09;;;;;;;17.00;8.77;;;-1.30;99.90;;;;;;5007129;28;20434;-60
2023/01/23 01:48:59;;;;;;;14.47;7.83;;;-1.30;99.90;;;;;;5004966;28;20437;-60
2023/01/23 01:51:41;;;;;;;14.03;8.20;;;-1.30;99.90;;;;;;5004863;28;20437;-60
2023/01/23 01:54:12;;;;;;;16.57;8.80;;;-1.20;99.90;;;;;;5012410;28;20552;-60
2023/01/23 01:56:50;;;;;;;14.73;8.13;;;-1.20;99.90;;;;;;5012313;28;20465;-60
2023/01/23 01:59:17;;;;;;;14.60;8.53;;;-1.20;99.90;;;;;;5013326;28;20906;-60
2023/01/23 02:01:46;;;;;;;13.77;8.37;;;-1.20;99.90;;;;;;5009650;28;20961;-61
2023/01/23 02:04:12;;;;;;;17.90;10.07;;;-1.20;99.90;;;;;;5012494;28;20453;-60
2023/01/23 02:06:37;;;;;;;16.17;9.10;;;-1.20;99.90;;;;;;5007998;28;20439;-60
2023/01/23 02:09:32;;;;;;;14.80;8.43;;;-1.20;99.90;;;;;;5007080;28;20426;-59
2023/01/23 02:11:59;;;;;;;15.80;9.43;;;-1.20;99.90;;;;;;5010964;28;20505;-60
2023/01/23 02:14:24;;;;;;;15.80;8.70;;;-1.20;99.90;;;;;;5012055;28;21015;-60
2023/01/23 02:16:51;;;;;;;13.17;7.10;;;-1.20;99.90;;;;;;5006789;28;20444;-60
2023/01/23 02:19:35;;;;;;;17.63;8.77;;;-1.20;99.90;;;;;;5010319;28;20178;-60
2023/01/23 02:22:25;;;;;;;12.50;8.00;;;-1.20;99.90;;;;;;4985725;28;20429;-59
2023/01/23 02:25:05;;;;;;;16.63;8.80;;;-1.20;99.90;;;;;;5007663;28;20976;-60
2023/01/23 02:27:30;;;;;;;17.07;8.50;;;-1.20;99.90;;;;;;5011865;28;20433;-60
2023/01/23 02:29:57;;;;;;;18.50;8.83;;;-1.20;99.90;;;;;;5008735;28;20979;-60
2023/01/23 02:32:26;;;;;;;15.70;9.20;;;-1.10;99.90;;;;;;5009049;28;20202;-60
2023/01/23 02:34:56;;;;;;;14.20;7.80;;;-1.20;99.90;;;;;;5006846;28;20449;-60
2023/01/23 02:37:26;;;;;;;18.00;10.00;;;-1.10;99.90;;;;;;5007491;28;20432;-60
2023/01/23 02:39:52;;;;;;;16.20;9.07;;;-1.10;99.90;;;;;;5011549;28;20461;-60
2023/01/23 02:42:19;;;;;;;13.27;7.97;;;-1.10;99.90;;;;;;5009304;28;20428;-60
2023/01/23 02:44:45;;;;;;;16.53;8.60;;;-1.10;99.90;;;;;;5014958;28;21147;-60
2023/01/23 02:47:11;;;;;;;14.73;7.67;;;-1.10;99.90;;;;;;5014385;28;20436;-60
2023/01/23 02:49:38;;;;;;;12.07;7.70;;;-1.10;99.90;;;;;;5011923;28;20561;-60
2023/01/23 02:52:05;;;;;;;13.87;7.70;;;-1.10;99.90;;;;;;5006631;28;20464;-60
2023/01/23 02:54:31;;;;;;;15.30;8.03;;;-1.10;99.90;;;;;;4996725;28;20450;-60
2023/01/23 02:56:57;;;;;;;14.60;7.90;;;-1.10;99.90;;;;;;5012593;28;20460;-60
2023/01/23 03:02:07;;;;;;;14.63;7.93;;;-1.10;99.90;;;;;;5010173;28;20511;-59
2023/01/23 03:04:33;;;;;;;13.20;7.90;;;-1.10;99.90;;;;;;5003573;28;21005;-59
2023/01/23 03:06:59;;;;;;;12.90;7.50;;;-1.00;99.90;;;;;;5009421;28;20170;-60
2023/01/23 03:09:25;;;;;;;13.80;8.10;;;-1.10;99.90;;;;;;5011526;28;20205;-60
2023/01/23 03:11:51;;;;;;;10.13;6.23;;;-1.10;99.90;;;;;;5011645;28;20458;-60
2023/01/23 03:14:19;;;;;;;14.17;7.17;;;-1.10;99.90;;;;;;5007110;28;20454;-60
2023/01/23 03:16:50;;;;;;;12.00;6.40;;;-1.00;99.90;;;;;;5007541;28;20603;-59
2023/01/23 03:19:16;;;;;;;11.20;5.63;;;-1.10;99.90;;;;;;5011098;28;20451;-59
2023/01/23 03:21:42;;;;;;;12.87;7.30;;;-1.10;99.90;;;;;;5006624;28;20468;-60
2023/01/23 03:24:10;;;;;;;11.60;6.40;;;-1.10;99.90;;;;;;5013215;28;20483;-60
2023/01/23 03:26:43;;;;;;;13.10;5.97;;;-1.10;99.90;;;;;;5013558;28;20204;-65
2023/01/23 03:32:01;;;;;;;10.33;6.00;;;-1.20;99.90;;;;;;5007864;28;20543;-59
2023/01/23 03:34:28;;;;;;;10.77;5.50;;;-1.20;99.90;;;;;;4994917;28;20481;-61
2023/01/23 03:36:54;;;;;;;7.80;4.60;;;-1.30;99.90;;;;;;5009559;28;20422;-60
2023/01/23 03:42:04;;;;;;;4.10;3.70;;;-1.30;99.90;;;;;;5011075;28;20323;-59
2023/01/23 03:44:29;;;;;;;4.73;3.47;;;-1.30;99.70;;;;;;5008193;28;20538;-59
2023/01/23 03:46:55;;;;;;;4.77;3.50;;;-1.40;97.20;;;;;;5015356;28;20761;-59
2023/01/23 03:49:21;;;;;;;5.73;3.97;;;-1.40;97.40;;;;;;5011720;28;20174;-61
2023/01/23 03:51:46;;;;;;;4.90;3.90;;;-1.40;97.20;;;;;;5017826;28;20198;-59
2023/01/23 03:54:13;;;;;;;6.13;3.97;;;-1.40;96.40;;;;;;5012908;28;20205;-60
2023/01/23 03:56:40;;;;;;;3.90;3.03;;;-1.50;96.50;;;;;;5009764;28;20186;-60
2023/01/23 03:59:05;;;;;;;5.40;3.70;;;-1.50;95.90;;;;;;4989773;28;20425;-60
2023/01/23 04:01:31;;;;;;;4.23;3.57;;;-1.50;96.40;;;;;;5007446;28;20436;-59
2023/01/23 04:03:56;;;;;;;5.33;3.50;;;-1.50;96.80;;;;;;5006917;28;20726;-59
2023/01/23 04:06:22;;;;;;;6.70;3.40;;;-1.50;96.70;;;;;;5007743;28;20210;-59
2023/01/23 04:08:48;;;;;;;5.90;3.47;;;-1.50;96.70;;;;;;4991608;28;20175;-59
2023/01/23 04:11:13;;;;;;;5.87;3.70;;;-1.50;96.20;;;;;;4991203;28;20174;-59
2023/01/23 04:13:39;;;;;;;3.83;3.00;;;-1.50;96.20;;;;;;5007460;28;20209;-60
2023/01/23 04:16:05;;;;;;;3.83;3.43;;;-1.50;96.80;;;;;;5009335;28;20553;-58
2023/01/23 04:18:32;;;;;;;5.13;3.60;;;-1.50;97.30;;;;;;5006469;28;20194;-60
2023/01/23 04:20:57;;;;;;;4.20;3.57;;;-1.50;97.50;;;;;;5007772;28;20925;-60
2023/01/23 04:23:24;;;;;;;4.03;3.13;;;-1.50;97.90;;;;;;4992078;28;20476;-60
2023/01/23 04:25:51;;;;;;;4.83;3.40;;;-1.50;97.90;;;;;;5007118;28;20187;-60
2023/01/23 04:28:17;;;;;;;4.83;3.60;;;-1.50;98.20;;;;;;5007240;28;20483;-60
2023/01/23 04:30:43;;;;;;;6.70;4.63;;;-1.50;98.10;;;;;;5003470;28;20487;-60
2023/01/23 04:33:08;;;;;;;6.70;4.60;;;-1.50;97.80;;;;;;5003515;28;20456;-60
2023/01/23 04:35:35;;;;;;;4.90;3.33;;;-1.50;98.10;;;;;;4990193;28;20870;-60
2023/01/23 04:38:01;;;;;;;7.10;4.23;;;-1.50;98.20;;;;;;5007969;28;20182;-60
2023/01/23 04:40:26;;;;;;;5.63;4.10;;;-1.50;98.20;;;;;;5006311;28;20442;-60
2023/01/23 04:42:52;;;;;;;6.40;4.63;;;-1.50;98.40;;;;;;4994288;28;20596;-60
2023/01/23 04:45:18;;;;;;;5.10;3.53;;;-1.50;98.20;;;;;;5010601;28;20377;-61
2023/01/23 04:47:43;;;;;;;4.27;3.30;;;-1.50;98.50;;;;;;4989222;28;20182;-60
2023/01/23 04:50:09;;;;;;;4.73;3.83;;;-1.50;98.60;;;;;;5005206;28;20187;-60
2023/01/23 04:52:35;;;;;;;5.93;3.83;;;-1.50;98.20;;;;;;5007681;28;20206;-60
2023/01/23 04:55:01;;;;;;;5.03;3.93;;;-1.50;97.80;;;;;;4995741;28;20511;-60
2023/01/23 04:57:27;;;;;;;6.23;3.97;;;-1.50;97.80;;;;;;5002487;28;20996;-60
2023/01/23 04:59:52;;;;;;;5.93;4.40;;;-1.50;98.00;;;;;;5004431;28;20903;-60
2023/01/23 05:02:18;;;;;;;6.17;4.03;;;-1.50;98.20;;;;;;5003449;28;20669;-59
2023/01/23 05:04:44;;;;;;;8.10;4.70;;;-1.50;98.70;;;;;;5001293;28;20240;-60
2023/01/23 05:07:11;;;;;;;7.47;5.20;;;-1.50;98.80;;;;;;5004525;28;20186;-60
2023/01/23 05:09:38;;;;;;;6.40;4.80;;;-1.40;99.00;;;;;;4999353;28;20197;-60
2023/01/23 05:12:04;;;;;;;8.80;5.13;;;-1.40;98.90;;;;;;5001152;28;20877;-60
2023/01/23 05:14:30;;;;;;;6.40;4.80;;;-1.50;98.70;;;;;;4999861;28;20488;-60
2023/01/23 05:16:55;;;;;;;7.93;4.97;;;-1.50;99.30;;;;;;4998984;28;20455;-59
2023/01/23 05:19:21;;;;;;;10.83;5.07;;;-1.40;99.90;;;;;;5000813;28;20571;-60
2023/01/23 05:21:47;;;;;;;11.60;5.90;;;-1.40;99.90;;;;;;5000386;28;20670;-61
2023/01/23 05:24:12;;;;;;;11.17;6.30;;;-1.40;99.90;;;;;;4999233;28;20198;-59
2023/01/23 05:26:38;;;;;;;11.50;6.47;;;-1.40;99.90;;;;;;4995002;28;20186;-59
2023/01/23 05:29:04;;;;;;;10.90;6.33;;;-1.40;99.90;;;;;;4998995;28;20197;-59
2023/01/23 05:31:29;;;;;;;11.20;6.10;;;-1.40;99.90;;;;;;4996811;28;20185;-59
2023/01/23 05:33:55;;;;;;;13.50;6.83;;;-1.40;99.90;;;;;;4982846;28;20198;-59
2023/01/23 05:36:20;;;;;;;13.83;7.20;;;-1.40;99.90;;;;;;5000775;28;20666;-54
2023/01/23 05:38:46;;;;;;;12.23;6.80;;;-1.40;99.90;;;;;;4998454;28;20183;-58
2023/01/23 05:41:11;;;;;;;17.17;7.60;;;-1.30;99.90;;;;;;4997567;28;20608;-57
2023/01/23 05:43:37;;;;;;;12.63;6.70;;;-1.20;99.90;;;;;;5008939;28;20218;-57
2023/01/23 05:46:03;;;;;;;18.53;7.20;;;-1.00;99.90;;;;;;5002742;28;20173;-59
2023/01/23 05:48:28;;;;;;;11.00;5.93;;;-0.90;99.90;;;;;;4998313;28;20190;-59
2023/01/23 05:50:54;;;;;;;8.40;5.57;;;-1.00;99.90;;;;;;5002607;28;20274;-59
2023/01/23 05:53:20;;;;;;;11.13;6.00;;;-1.10;99.90;;;;;;4987479;28;20213;-58
2023/01/23 05:55:45;;;;;;;10.17;6.53;;;-1.10;99.90;;;;;;5003745;28;20208;-55
2023/01/23 05:58:11;;;;;;;10.27;6.40;;;-1.20;99.90;;;;;;5002627;28;20367;-58
2023/01/23 06:00:36;;;;;;;11.03;6.00;;;-1.20;99.90;;;;;;5003383;28;20175;-60
2023/01/23 06:03:02;;;;;;;9.87;6.20;;;-1.30;99.90;;;;;;5005669;28;20209;-55
2023/01/23 06:05:28;;;;;;;12.47;5.73;;;-1.30;99.90;;;;;;5004589;28;20178;-56
2023/01/23 06:07:54;;;;;;;10.80;6.07;;;-1.30;99.90;;;;;;5005348;28;20445;-59
2023/01/23 06:10:20;;;;;;;11.23;6.20;;;-1.30;99.90;;;;;;5010319;28;20187;-57
2023/01/23 06:12:45;;;;;;;9.70;5.90;;;-1.30;99.90;;;;;;5006940;28;20674;-56
2023/01/23 06:15:11;;;;;;;12.63;6.60;;;-1.30;99.90;;;;;;4998115;28;20225;-58
2023/01/23 06:17:37;;;;;;;9.20;5.80;;;-1.30;99.90;;;;;;5017634;28;20184;-58
2023/01/23 06:20:03;;;;;;;10.50;5.50;;;-1.30;99.90;;;;;;4990893;28;20182;-60
2023/01/23 06:22:29;;;;;;;10.77;6.57;;;-1.30;99.90;;;;;;4977405;28;20237;-58
2023/01/23 06:24:54;;;;;;;10.83;6.47;;;-1.30;99.90;;;;;;4993919;28;20462;-59
2023/01/23 06:27:20;;;;;;;13.70;6.07;;;-1.30;99.90;;;;;;5001673;28;20256;-58
2023/01/23 06:29:46;;;;;;;8.83;5.57;;;-1.30;99.90;;;;;;4998310;28;20207;-58
2023/01/23 06:32:11;;;;;;;10.50;5.70;;;-1.30;99.90;;;;;;5005471;28;20214;-59
2023/01/23 06:34:37;;;;;;;12.37;6.60;;;-1.30;99.90;;;;;;4984214;28;20198;-60
2023/01/23 06:37:03;;;;;;;9.13;5.57;;;-1.30;99.90;;;;;;4993188;28;20368;-60
2023/01/23 06:39:33;;;;;;;14.27;6.10;;;-1.30;99.90;;;;;;5001028;28;20442;-57
2023/01/23 06:41:58;;;;;;;10.83;6.57;;;-1.30;99.90;;;;;;4997904;28;20277;-56
2023/01/23 06:44:24;;;;;;;13.03;6.40;;;-1.30;99.90;;;;;;5000326;28;20543;-55
2023/01/23 06:46:52;;;;;;;9.80;6.10;;;-1.40;99.90;;;;;;5011067;28;20178;-58
2023/01/23 06:49:18;;;;;;;11.90;6.57;;;-1.40;99.90;;;;;;5007173;28;20228;-58
2023/01/23 06:51:43;;;;;;;13.53;7.17;;;-1.40;99.90;;;;;;5006989;28;20460;-56
2023/01/23 06:54:09;;;;;;;8.00;5.57;;;-1.40;99.90;;;;;;5005603;28;20204;-54
2023/01/23 06:56:35;;;;;;;8.83;6.00;;;-1.40;99.90;;;;;;5006151;28;20271;-54
2023/01/23 06:59:00;;;;;;;11.03;7.00;;;-1.40;99.90;;;;;;5006616;28;20438;-60
2023/01/23 07:01:27;;;;;;;13.90;6.60;;;-1.40;99.90;;;;;;4976318;28;20666;-58
2023/01/23 07:03:53;;;;;;;10.20;6.40;;;-1.40;99.90;;;;;;4999699;28;20277;-55
2023/01/23 07:06:19;;;;;;;8.20;5.73;;;-1.40;99.90;;;;;;4997720;28;20450;-58
2023/01/23 07:08:44;;;;;;;12.23;6.80;;;-1.40;99.90;;;;;;5009101;28;20178;-56
2023/01/23 07:11:10;;;;;;;12.80;6.83;;;-1.40;99.90;;;;;;5007673;28;20722;-57
2023/01/23 07:13:36;;;;;;;12.27;7.00;;;-1.40;99.90;;;;;;5001346;28;20316;-60
2023/01/23 07:16:02;;;;;;;15.97;7.90;;;-1.40;99.90;;;;;;4997971;28;20525;-58
2023/01/23 07:18:29;;;;;;;9.30;6.00;;;-1.40;99.90;;;;;;5009632;28;20178;-56
2023/01/23 07:20:55;;;;;;;9.30;5.83;;;-1.40;99.90;;;;;;4992620;28;20425;-60
2023/01/23 07:23:21;;;;;;;12.30;6.27;;;-1.40;99.90;;;;;;5009413;28;20463;-60
2023/01/23 07:25:46;;;;;;;11.47;6.47;;;-1.30;99.90;;;;;;5003539;28;20926;-61
2023/01/23 07:28:12;;;;;;;11.27;6.20;;;-1.40;99.90;;;;;;4985848;28;20467;-61
2023/01/23 07:30:38;;;;;;;7.83;5.13;;;-1.40;99.90;;;;;;5001575;28;20214;-62
2023/01/23 07:33:04;;;;;;;8.97;5.60;;;-1.40;99.90;;;;;;4997496;28;20313;-60
2023/01/23 07:35:30;;;;;;;10.53;6.27;;;-1.40;99.90;;;;;;4984316;28;20671;-62
2023/01/23 07:37:56;;;;;;;10.83;5.90;;;-1.40;99.90;;;;;;5001152;28;20436;-62
2023/01/23 07:40:21;;;;;;;8.93;5.77;;;-1.40;99.90;;;;;;4996983;28;20820;-61
2023/01/23 07:42:47;;;;;;;12.93;6.70;;;-1.40;99.90;;;;;;5000362;28;20182;-62
2023/01/23 07:45:13;;;;;;;12.57;6.30;;;-1.40;99.90;;;;;;4998137;28;20217;-61
2023/01/23 07:47:38;;;;;;;13.57;6.20;;;-1.40;99.90;;;;;;4994289;28;20433;-61
2023/01/23 07:50:10;;;;;;;11.90;6.80;;;-1.40;99.90;;;;;;5003274;28;20183;-61
2023/01/23 07:52:37;;;;;;;12.37;6.70;;;-1.40;99.90;;;;;;4999568;28;20690;-60
2023/01/23 07:55:04;;;;;;;11.00;6.20;;;-1.30;99.90;;;;;;5006146;28;20492;-61
2023/01/23 07:57:30;;;;;;;11.53;6.20;;;-1.40;99.90;;;;;;5007738;28;20985;-61
2023/01/23 07:59:55;;;;;;;11.90;7.57;;;-1.40;99.90;;;;;;5009792;28;20460;-61
2023/01/23 08:02:21;;;;;;;10.60;6.60;;;-1.40;99.90;;;;;;5004880;28;20274;-60
2023/01/23 08:04:47;;;;;;;10.83;6.30;;;-1.40;99.90;;;;;;5005964;28;20218;-61
2023/01/23 08:07:12;;;;;;;15.03;7.13;;;-1.40;99.90;;;;;;4986604;28;20187;-57
2023/01/23 08:09:39;;;;;;;14.03;7.07;;;-1.40;99.90;;;;;;4984709;28;20269;-59
2023/01/23 08:12:05;;;;;;;13.03;7.27;;;-1.40;99.90;;;;;;5004578;28;20194;-60
2023/01/23 08:14:30;;;;;;;9.00;6.23;;;-1.40;99.90;;;;;;5005626;28;20599;-61
2023/01/23 08:16:56;;;;;;;11.53;6.80;;;-1.40;99.90;;;;;;5002899;28;20277;-63
2023/01/23 08:19:24;;;;;;;13.87;7.20;;;-1.40;99.90;;;;;;5022191;28;20232;-62
2023/01/23 08:21:50;;;;;;;12.07;7.87;;;-1.40;99.90;;;;;;5002737;28;20499;-61
2023/01/23 08:24:16;;;;;;;13.33;7.00;;;-1.30;99.90;;;;;;5005824;28;20606;-62
2023/01/23 08:26:42;;;;;;;14.30;6.83;;;-1.30;99.90;;;;;;5004424;28;20465;-63
2023/01/23 08:29:08;;;;;;;10.30;6.27;;;-1.30;99.90;;;;;;5004388;28;20973;-62
2023/01/23 08:31:34;;;;;;;12.90;7.07;;;-1.30;99.90;;;;;;5002489;28;20429;-60
2023/01/23 08:34:00;;;;;;;14.00;6.80;;;-1.30;99.90;;;;;;4981440;28;20819;-61
2023/01/23 08:36:26;;;;;;;12.70;6.87;;;-1.30;99.90;;;;;;5002433;28;20439;-61
2023/01/23 08:38:51;;;;;;;13.00;6.67;;;-1.30;99.90;;;;;;5005733;28;20272;-61
2023/01/23 08:41:17;;;;;;;10.07;6.20;;;-1.20;99.90;;;;;;5008406;28;20185;-60
2023/01/23 08:43:43;;;;;;;9.20;5.90;;;-1.20;99.90;;;;;;5011287;28;20205;-60
2023/01/23 08:46:09;;;;;;;11.43;6.27;;;-1.20;99.90;;;;;;5008122;28;20191;-61
2023/01/23 08:48:35;;;;;;;8.50;5.17;;;-1.20;99.90;;;;;;5003780;28;20205;-60
2023/01/23 08:51:11;;;;;;;10.80;6.10;;;-1.20;99.90;;;;;;5009654;28;20464;-59
2023/01/23 08:53:37;;;;;;;9.60;5.80;;;-1.20;99.90;;;;;;5008937;28;20891;-60
2023/01/23 08:56:04;;;;;;;9.97;5.90;;;-1.10;99.90;;;;;;5005225;28;20444;-60
2023/01/23 08:58:30;;;;;;;15.07;5.30;;;-1.10;99.90;;;;;;5003079;28;20437;-60
2023/01/23 09:00:57;;;;;;;7.80;5.50;;;-1.00;99.90;;;;;;5006632;28;21308;-59
2023/01/23 09:03:22;;;;;;;10.67;5.70;;;-1.00;99.90;;;;;;5005609;28;20470;-60
2023/01/23 09:05:48;;;;;;;10.00;6.60;;;-0.90;99.90;;;;;;5004776;28;20463;-60
2023/01/23 09:08:14;;;;;;;9.50;5.70;;;-0.90;99.90;;;;;;4991338;28;20182;-60
2023/01/23 09:10:39;;;;;;;9.57;5.43;;;-0.90;99.90;;;;;;5005045;28;20183;-59
2023/01/23 09:13:05;;;;;;;9.00;5.20;;;-0.80;99.90;;;;;;5006030;28;20242;-60
2023/01/23 09:15:31;;;;;;;8.90;5.50;;;-0.80;99.90;;;;;;5006366;28;20212;-60
2023/01/23 09:17:57;;;;;;;9.33;6.07;;;-0.80;99.90;;;;;;5012482;28;20596;-61
2023/01/23 09:20:27;;;;;;;11.40;6.60;;;-0.80;99.90;;;;;;5008076;28;20186;-61
2023/01/23 09:22:53;;;;;;;9.80;6.57;;;-0.80;99.90;;;;;;4995049;28;20190;-60
2023/01/23 09:25:19;;;;;;;10.07;6.23;;;-0.80;99.90;;;;;;5007532;28;20508;-60
2023/01/23 09:27:44;;;;;;;9.73;6.30;;;-0.80;99.90;;;;;;5007835;28;20177;-60
2023/01/23 09:30:10;;;;;;;10.30;6.27;;;-0.70;99.90;;;;;;5006255;28;20266;-60
2023/01/23 09:32:36;;;;;;;9.13;5.13;;;-0.70;99.90;;;;;;5004913;28;20211;-60
2023/01/23 09:35:02;;;;;;;10.60;5.73;;;-0.70;99.90;;;;;;4993592;28;20464;-60
2023/01/23 09:37:58;;;;;;;10.53;6.20;;;-0.70;99.90;;;;;;5003920;28;20185;-60
2023/01/23 09:40:21;;;;;;;9.43;5.50;;;-0.70;99.90;;;;;;5000685;28;20336;-61
2023/01/23 09:42:47;;;;;;;11.17;6.03;;;-0.70;99.90;;;;;;5005748;28;20517;-60
2023/01/23 09:45:18;;;;;;;10.10;5.50;;;-0.70;99.90;;;;;;5005522;28;20564;-60
2023/01/23 09:47:52;;;;;;;9.57;6.47;;;-0.70;99.90;;;;;;5007295;28;20444;-60
2023/01/23 09:50:24;;;;;;;11.27;7.03;;;-0.70;99.90;;;;;;5006411;28;20439;-60
2023/01/23 09:52:59;;;;;;;10.33;6.27;;;-0.70;99.90;;;;;;4985484;28;20468;-62
2023/01/23 09:55:34;;;;;;;13.50;6.20;;;-0.70;99.90;;;;;;5001117;28;20440;-61
2023/01/23 09:58:02;;;;;;;11.27;6.20;;;-0.70;99.90;;;;;;5006991;28;20573;-61
2023/01/23 10:00:30;;;;;;;14.73;7.10;;;-0.70;99.90;;;;;;5003778;28;20452;-62
2023/01/23 10:03:01;;;;;;;12.63;7.17;;;-0.70;99.90;;;;;;4999515;28;20448;-63
2023/01/23 10:06:11;;;;;;;11.20;6.17;;;-0.70;99.90;;;;;;5020161;28;20807;-61
2023/01/23 10:09:00;;;;;;;13.27;7.43;;;-0.70;99.90;;;;;;5007379;28;20828;-62
2023/01/23 10:11:56;;;;;;;13.33;7.20;;;-0.70;99.90;;;;;;4995498;28;20851;-62
2023/01/23 10:14:25;;;;;;;11.30;6.70;;;-0.60;99.90;;;;;;5011318;28;20480;-61
2023/01/23 10:17:15;;;;;;;11.60;5.93;;;-0.60;99.90;;;;;;5009514;28;21048;-61
2023/01/23 10:19:47;;;;;;;12.13;7.33;;;-0.60;99.90;;;;;;5008468;28;20451;-61
2023/01/23 10:22:15;;;;;;;10.67;6.73;;;-0.60;99.90;;;;;;5012794;28;20410;-62
2023/01/23 10:24:50;;;;;;;10.57;6.83;;;-0.50;99.90;;;;;;5015621;28;21031;-62
2023/01/23 10:27:18;;;;;;;13.47;7.43;;;-0.50;99.90;;;;;;5007937;28;20952;-62
2023/01/23 10:29:50;;;;;;;14.40;7.53;;;-0.50;99.90;;;;;;5010649;28;20464;-62
2023/01/23 10:32:30;;;;;;;15.83;7.90;;;-0.40;99.90;;;;;;5013088;28;20548;-61
2023/01/23 10:35:04;;;;;;;12.37;6.80;;;-0.50;99.90;;;;;;5014589;28;20452;-61
2023/01/23 10:37:35;;;;;;;12.37;7.13;;;-0.40;99.90;;;;;;4993940;28;20964;-61
2023/01/23 10:40:06;;;;;;;12.47;6.97;;;-0.40;99.90;;;;;;5010597;28;20437;-61
2023/01/23 10:42:32;;;;;;;12.73;6.40;;;-0.40;99.90;;;;;;5011511;28;20449;-60
2023/01/23 10:44:57;;;;;;;9.77;6.03;;;-0.40;99.90;;;;;;5008492;28;20503;-61
2023/01/23 10:47:27;;;;;;;13.33;7.80;;;-0.40;99.90;;;;;;5013658;28;20223;-62
2023/01/23 10:49:53;;;;;;;12.77;7.63;;;-0.40;99.90;;;;;;5009488;28;20589;-60
2023/01/23 10:52:39;;;;;;;11.63;6.80;;;-0.30;99.90;;;;;;5010086;28;20491;-61
2023/01/23 10:55:26;;;;;;;13.23;6.90;;;-0.30;99.90;;;;;;5008957;28;20659;-61
2023/01/23 10:57:57;;;;;;;12.10;6.50;;;-0.30;99.90;;;;;;5009927;28;20441;-62
2023/01/23 11:00:32;;;;;;;11.73;6.50;;;-0.30;99.90;;;;;;5008778;28;20428;-61
2023/01/23 11:03:17;;;;;;;12.87;6.77;;;-0.30;99.90;;;;;;5009154;28;20401;-61
2023/01/23 11:05:44;;;;;;;9.80;6.23;;;-0.20;99.90;;;;;;4999995;28;20455;-61
2023/01/23 11:08:22;;;;;;;12.20;6.93;;;-0.20;99.90;;;;;;5000851;28;20527;-61
2023/01/23 11:10:47;;;;;;;38.27;12.93;;;-0.20;99.90;;;;;;5003887;28;20434;-60
2023/01/23 11:13:28;;;;;;;11.53;7.07;;;-0.10;99.90;;;;;;5021241;28;21120;-61
2023/01/23 11:15:55;;;;;;;19.27;7.80;;;-0.10;99.90;;;;;;5009806;28;20182;-60
2023/01/23 11:18:33;;;;;;;31.93;11.70;;;-0.10;99.90;;;;;;4985262;28;20954;-58
2023/01/23 11:20:58;;;;;;;11.90;7.10;;;0.00;99.90;;;;;;5006333;28;20455;-61
2023/01/23 11:23:25;;;;;;;14.03;6.70;;;0.00;99.90;;;;;;5012894;28;21000;-61
2023/01/23 11:25:52;;;;;;;14.40;6.83;;;0.10;99.90;;;;;;4984401;28;20654;-60
2023/01/23 11:28:26;;;;;;;14.23;7.83;;;0.10;99.90;;;;;;4983973;28;20477;-63
2023/01/23 11:31:16;;;;;;;10.10;6.47;;;0.10;99.90;;;;;;5008486;28;20430;-60
2023/01/23 11:33:57;;;;;;;13.10;6.70;;;0.20;99.90;;;;;;5008226;28;20488;-61
2023/01/23 11:36:44;;;;;;;14.23;7.17;;;0.20;99.90;;;;;;4993421;28;21056;-62
2023/01/23 11:39:49;;;;;;;13.50;7.07;;;0.20;99.90;;;;;;5007430;28;20476;-62
2023/01/23 11:42:16;;;;;;;13.17;7.47;;;0.20;99.90;;;;;;5007766;28;20454;-62
2023/01/23 11:44:41;;;;;;;12.70;6.70;;;0.20;99.90;;;;;;4985138;28;20449;-62
2023/01/23 11:47:19;;;;;;;14.73;7.47;;;0.20;99.90;;;;;;4999445;28;20784;-62
2023/01/23 11:50:01;;;;;;;13.20;7.37;;;0.20;99.90;;;;;;5000501;28;20429;-61
2023/01/23 11:52:33;;;;;;;13.20;7.00;;;0.20;99.90;;;;;;5001721;28;20480;-61
2023/01/23 11:55:04;;;;;;;14.93;7.63;;;0.20;99.90;;;;;;5001797;28;20447;-61
2023/01/23 11:57:49;;;;;;;12.03;6.83;;;0.20;99.90;;;;;;5002005;28;20933;-62
2023/01/23 12:00:35;;;;;;;15.67;7.20;;;0.30;99.90;;;;;;5002115;28;20432;-61
2023/01/23 12:03:07;;;;;;;12.33;7.20;;;0.30;99.90;;;;;;5001110;28;20428;-61
2023/01/23 12:05:44;;;;;;;15.20;7.10;;;0.30;99.90;;;;;;5000982;28;20437;-62
2023/01/23 12:08:28;;;;;;;13.70;7.57;;;0.30;99.90;;;;;;5003105;28;20477;-56
2023/01/23 12:11:15;;;;;;;15.23;7.27;;;0.40;99.90;;;;;;5004842;28;20426;-61
2023/01/23 12:14:03;;;;;;;18.97;8.00;;;0.50;99.90;;;;;;5009808;28;20469;-61
2023/01/23 12:17:00;;;;;;;13.00;7.70;;;0.50;99.90;;;;;;5004708;28;20447;-60
2023/01/23 12:19:49;;;;;;;15.07;7.70;;;0.50;99.90;;;;;;5006753;28;20516;-61
2023/01/23 12:22:21;;;;;;;13.40;7.10;;;0.60;99.90;;;;;;5008154;28;20876;-60
2023/01/23 12:25:26;;;;;;;10.90;6.30;;;0.60;99.90;;;;;;4998108;28;20457;-62
2023/01/23 12:28:03;;;;;;;16.13;6.73;;;0.70;99.90;;;;;;4994789;28;20449;-59
2023/01/23 12:30:50;;;;;;;12.10;6.30;;;0.80;99.90;;;;;;5001028;28;20438;-59
2023/01/23 12:33:15;;;;;;;11.00;6.73;;;0.90;99.90;;;;;;4996419;28;20544;-59
2023/01/23 12:35:54;;;;;;;12.17;6.83;;;1.10;99.90;;;;;;4998328;28;20430;-61
2023/01/23 12:38:49;;;;;;;13.40;6.37;;;1.10;99.90;;;;;;5000949;28;20179;-61
2023/01/23 12:41:50;;;;;;;13.07;6.83;;;1.20;99.90;;;;;;4997668;28;21012;-61
2023/01/23 12:44:23;;;;;;;11.03;6.50;;;1.20;99.90;;;;;;4973847;28;20454;-60
2023/01/23 12:47:05;;;;;;;13.17;6.73;;;1.20;99.90;;;;;;5003156;28;20441;-58
2023/01/23 12:49:48;;;;;;;12.40;7.57;;;1.20;99.90;;;;;;5003023;28;20433;-59
2023/01/23 12:52:25;;;;;;;13.40;7.13;;;1.20;99.90;;;;;;5004673;28;20467;-59
2023/01/23 12:54:57;;;;;;;16.03;6.57;;;1.20;99.90;;;;;;4986027;28;21068;-59
2023/01/23 12:57:50;;;;;;;12.10;7.63;;;1.20;99.90;;;;;;4999577;28;20436;-60
2023/01/23 13:00:38;;;;;;;14.80;8.20;;;1.10;99.90;;;;;;4996550;28;20535;-61